x

Sentry Shoal (46131) Wave Buoy

9:00am - Sun 22nd Oct 2017 All times are PDT. -7 hours from GMT.

  • Sig Wave height 0.3ft
  • Peak Period 3s
  • Wind
    7mph, 7mph gusts
  • Sea Temp 51°f
  • Air Temp 51°f
  • Sea Pressure 1012.6mb
  • Sentry Shoal
  • Sentry Shoal

More Historic Weather Station data

Upgrade to MSW Pro to gain access to the past 30 days of data for over 8000 Wavebouys and Weather Stations around the globe.

Join

Comparision Forecast

View Surf forecast
   
Sun 10/22 9:00am 0.3ft 3s 7 7 mph 1012.6mb 51f 51f
8:00am 0.3ft 5s 9 11 mph 1010.6mb 51f 51f
7:00am 0.3ft 5s 4 9 mph 1009mb 51f 51f
6:00am 0.7ft 4s 9 13 mph 1007.2mb 51f 49f
5:00am 1ft 4s 2 7 mph 1005.6mb 51f 49f
4:00am 1.3ft 4s 4 9 mph 1004.2mb 51f 50f
3:00am 1.6ft 4s 2 4 mph 1002.6mb 51f 51f
2:00am 1.6ft 3s 4 7 mph 1001.3mb 51f 50f
1:00am 2ft 5s 7 9 mph 1000mb 51f 49f
12:00am 2.5ft 5s 7 9 mph 998.6mb 51f 49f
Sat 10/21 11:00pm 3.5ft 6s 2 2 mph 998.6mb 51f 48f
10:00pm 5ft 6s 9 11 mph 997.7mb 51f 51f
9:00pm 5.5ft 6s 11 13 mph 997.7mb 51f 51f
8:00pm 6ft 6s 11 18 mph 996.3mb 51f 50f
7:00pm 5.5ft 6s 27 31 mph 995.4mb 51f 48f
6:00pm 5.5ft 6s 27 31 mph 996.6mb 51f 49f
5:00pm 5.5ft 6s 22 29 mph 998.1mb 51f 49f
4:00pm 5.5ft 6s 25 31 mph 999.5mb 51f 49f
3:00pm 5ft 6s 20 22 mph 1000.9mb 51f 49f
2:00pm 5ft 5s 22 25 mph 1002.2mb 51f 49f
1:00pm 4.5ft 6s 20 25 mph 1003mb 51f 48f
12:00pm 4.5ft 5s 22 29 mph 1003.6mb 51f 48f
11:00am 4.5ft 5s 29 34 mph 1004mb 51f 47f
10:00am 4ft 5s 27 31 mph 1004.3mb 51f 48f
9:00am 4.5ft 5s 25 27 mph 1004.8mb 51f 47f
8:00am 4.5ft 5s 20 25 mph 1005mb 51f 48f
7:00am 4.5ft 4s 25 31 mph 1005.4mb 51f 48f
6:00am 4ft 4s 27 36 mph 1006.2mb 51f 49f
5:00am 3.5ft 4s 27 31 mph 1006.9mb 51f 50f
4:00am 2.5ft 3s 25 31 mph 1007.7mb 51f 50f
3:00am 2ft 3s 22 27 mph 1008.9mb 51f 50f
2:00am 1.6ft 3s 18 22 mph 1009.3mb 51f 50f
1:00am 1.3ft 3s 18 22 mph 1009.5mb 51f 50f
12:00am 1ft 3s 13 16 mph 1009.8mb 51f 49f
Fri 10/20 11:00pm 0.7ft 2s 13 18 mph 1009.7mb 51f 50f
10:00pm 0.3ft 5s 11 13 mph 1009.7mb 51f 49f
9:00pm 0.3ft 5s 4 7 mph 1009.5mb 51f 49f
8:00pm 0.3ft 5s 4 7 mph 1009.4mb 51f 49f
7:00pm 0.3ft 2s  -  0 mph 1009.1mb 51f 49f
6:00pm 0.3ft 3s 7 9 mph 1008.2mb 51f 49f
5:00pm 0.7ft 3s  -  2 mph 1007.5mb 51f 50f
4:00pm 1.3ft 3s 9 11 mph 1007mb 51f 49f
3:00pm 1ft 3s 13 20 mph 1006.1mb 51f 50f
2:00pm 1ft 3s 16 18 mph 1005.7mb 51f 49f
1:00pm 0.7ft 2s 13 18 mph 1004.9mb 51f 49f
12:00pm 0.7ft 2s 13 13 mph 1004.2mb 51f 49f
11:00am 0.7ft 2s 9 11 mph 1003.3mb 51f 49f
10:00am 0.7ft 3s 9 9 mph 1002.6mb 51f 48f
9:00am 0.3ft 2s 4 7 mph 1001.9mb 51f 47f
8:00am 0.3ft 2s 7 7 mph 1001.1mb 51f 47f
7:00am 0.3ft 2s 2 4 mph 1000.6mb 51f 48f
6:00am 0.3ft 2s 2 4 mph 999.9mb 51f 48f
5:00am 0.3ft 2s 4 7 mph 999.4mb 51f 48f
4:00am 0.7ft 2s 7 9 mph 998.8mb 51f 48f
3:00am 0.7ft 3s 2 4 mph 998.3mb 51f 49f
2:00am 0.7ft 3s 7 9 mph 998.3mb 51f 49f
1:00am 0.7ft 3s 2 4 mph 997.9mb 51f 49f
12:00am 1ft 3s 2 4 mph 997.8mb 51f 50f
Thu 10/19 11:00pm 1.3ft 3s 4 7 mph 997.3mb 51f 50f
10:00pm 1.3ft 3s 2 2 mph 997mb 51f 50f
9:00pm 1.3ft 3s 7 9 mph 996.4mb 51f 51f
8:00pm 2ft 3s 9 13 mph 995.9mb 51f 52f
7:00pm 2ft 3s 11 13 mph 995.7mb 51f 52f
6:00pm 2.5ft 3s 13 18 mph 995.1mb 51f 52f
5:00pm 2.5ft 4s 13 18 mph 994.7mb 51f 52f
4:00pm 3ft 4s 16 18 mph 994.8mb 51f 52f
3:00pm 3ft 4s 20 25 mph 994.8mb 51f 52f
2:00pm 3.5ft 4s 20 25 mph 994.9mb 51f 52f
1:00pm 3ft 4s 18 22 mph 995.2mb 51f 53f
12:00pm 3.5ft 4s 18 20 mph 995.6mb 51f 52f
11:00am 4ft 4s 22 27 mph 995.3mb 51f 53f
10:00am 4.5ft 4s 25 29 mph 994.7mb 51f 52f
9:00am 3.5ft 4s 27 31 mph 994.5mb 51f 52f
8:00am 3.5ft 4s 22 27 mph 994.2mb 51f 52f
7:00am 3.5ft 4s 22 29 mph 994.8mb 51f 53f
6:00am 4ft 5s 18 20 mph 995.2mb 51f 52f
5:00am 4ft 4s 27 31 mph 994.3mb 51f 53f
4:00am 4.5ft 4s 25 29 mph 994.7mb 51f 52f
3:00am 4ft 4s 25 31 mph 995.1mb 51f 53f
2:00am 4ft 4s 25 31 mph 995.5mb 51f 53f
1:00am 3.5ft 4s 22 27 mph 994.9mb 51f 53f
12:00am 3.5ft 4s 18 22 mph 995.5mb 51f 54f
Wed 10/18 11:00pm 3.5ft 4s 18 22 mph 995.2mb 51f 55f
10:00pm 3.5ft 4s 20 27 mph 995mb 51f 53f
9:00pm 4ft 5s 22 27 mph 994.8mb 52f 53f
8:00pm 4ft 4s 18 27 mph 994.5mb 52f 53f
7:00pm 4.5ft 5s 22 25 mph 994.3mb 52f 53f
6:00pm 4.5ft 4s 27 34 mph 993.3mb 51f 52f